Terminal Aerodrome Forecast
Issued by NWS

Home | Current Version | Previous Version | Text Only | Print | Product List | Glossary On
Versions: 1 2 3 4 5 6 7 8 9 10 11 12 13 14 15
000
FTUS44 KCRP 291127
TAFALI
TAF
KALI 291127Z 2912/3012 15005KT 3SM BR OVC014
      TEMPO 2912/2914 1SM BR SCT007 OVC014
     FM291400 14012KT P6SM SCT020
     FM292000 13015G20KT P6SM SCT040
     FM300200 15010KT P6SM FEW020
     FM300800 17003KT 3SM BR SCT005
      TEMPO 3010/3012 1SM BR=

USA.gov is the U.S. government's official web portal to all federal, state and local government web resources and services.